Time;durP1;ratioP1;P1;durP2;ratioP2;P2;SDS_P1;SDS_P2;PMS_P1;PMS_P2;Temp;Humidity;BMP_temperature;BMP_pressure;BME280_temperature;BME280_humidity;BME280_pressure;Samples;Min_cycle;Max_cycle;Signal;HPM_P1;HPM_P2
2023/09/07 00:01:18;;;;;;;11.18;8.30;;;23.10;99.90;;;;;;5090997;28;20397;-60
2023/09/07 00:03:44;;;;;;;9.88;8.27;;;23.10;99.90;;;;;;5090957;28;20039;-60
2023/09/07 00:06:09;;;;;;;15.00;8.85;;;23.20;99.90;;;;;;5090823;28;20020;-59
2023/09/07 00:08:35;;;;;;;13.18;8.63;;;23.10;99.90;;;;;;5090760;28;20413;-59
2023/09/07 00:11:04;;;;;;;9.93;8.68;;;23.10;99.90;;;;;;5090800;28;20125;-60
2023/09/07 00:13:31;;;;;;;11.48;8.30;;;23.00;99.90;;;;;;5072745;28;20412;-60
2023/09/07 00:16:02;;;;;;;11.95;8.65;;;23.00;99.90;;;;;;5091154;28;20032;-60
2023/09/07 00:18:28;;;;;;;10.18;8.77;;;23.00;99.90;;;;;;5090844;28;20503;-59
2023/09/07 00:20:54;;;;;;;12.20;9.32;;;23.00;99.90;;;;;;5078453;28;20043;-60
2023/09/07 00:23:20;;;;;;;11.50;8.60;;;22.90;99.90;;;;;;5070130;28;20025;-59
2023/09/07 00:25:46;;;;;;;10.18;8.57;;;23.00;99.90;;;;;;5070820;28;20103;-60
2023/09/07 00:28:12;;;;;;;12.77;8.85;;;22.90;99.90;;;;;;5070347;28;20060;-59
2023/09/07 00:30:38;;;;;;;10.38;8.70;;;22.80;99.90;;;;;;5070687;28;20071;-60
2023/09/07 00:33:04;;;;;;;14.20;9.95;;;22.70;99.90;;;;;;5070772;28;20500;-60
2023/09/07 00:35:29;;;;;;;10.63;9.50;;;22.60;99.90;;;;;;5070366;28;20480;-60
2023/09/07 00:37:55;;;;;;;10.70;9.15;;;22.50;99.90;;;;;;5070046;28;20024;-59
2023/09/07 00:40:22;;;;;;;10.65;9.20;;;22.50;99.90;;;;;;5072339;28;20458;-60
2023/09/07 00:42:47;;;;;;;12.75;10.18;;;22.50;99.90;;;;;;5074090;28;20093;-60
2023/09/07 00:45:13;;;;;;;13.13;10.30;;;22.50;99.90;;;;;;5074063;28;20473;-60
2023/09/07 00:47:39;;;;;;;11.95;10.38;;;22.40;99.90;;;;;;5073744;28;20044;-60
2023/09/07 00:50:06;;;;;;;14.68;10.70;;;22.30;99.90;;;;;;5073885;28;20032;-60
2023/09/07 00:52:32;;;;;;;12.00;10.80;;;22.30;99.90;;;;;;5088847;28;20028;-60
2023/09/07 00:54:59;;;;;;;14.88;10.60;;;22.30;99.90;;;;;;5093992;28;20477;-59
2023/09/07 00:57:25;;;;;;;11.70;9.80;;;22.20;99.90;;;;;;5094030;28;20050;-60
2023/09/07 00:59:51;;;;;;;13.07;10.13;;;22.30;99.90;;;;;;5093802;28;20059;-60
2023/09/07 01:02:17;;;;;;;11.63;10.23;;;22.30;99.90;;;;;;5094139;28;20028;-59
2023/09/07 01:04:42;;;;;;;12.07;9.98;;;22.30;99.90;;;;;;5093857;28;20024;-60
2023/09/07 01:07:17;;;;;;;12.00;10.15;;;22.30;99.90;;;;;;5093364;28;20039;-59
2023/09/07 01:09:44;;;;;;;12.68;10.10;;;22.30;99.90;;;;;;5093694;28;20035;-59
2023/09/07 01:12:16;;;;;;;12.05;9.90;;;22.40;99.90;;;;;;5093650;28;20020;-59
2023/09/07 01:14:43;;;;;;;11.10;9.07;;;22.40;99.90;;;;;;5093653;28;20036;-59
2023/09/07 01:17:10;;;;;;;13.07;9.20;;;22.60;99.90;;;;;;5093595;28;20023;-59
2023/09/07 01:19:37;;;;;;;11.30;8.95;;;22.70;99.90;;;;;;5092203;28;20205;-60
2023/09/07 01:22:03;;;;;;;12.05;9.27;;;22.80;99.90;;;;;;5072852;28;20504;-60
2023/09/07 01:24:31;;;;;;;11.20;8.82;;;22.90;99.90;;;;;;5073253;28;20034;-60
2023/09/07 01:27:00;;;;;;;10.63;8.32;;;23.00;99.90;;;;;;5072926;28;20048;-60
2023/09/07 01:29:29;;;;;;;10.13;8.60;;;23.10;99.90;;;;;;5073107;28;20027;-60
2023/09/07 01:31:55;;;;;;;13.98;8.70;;;23.00;99.90;;;;;;5073467;28;20032;-60
2023/09/07 01:34:20;;;;;;;11.23;8.60;;;23.00;99.90;;;;;;5072964;28;20562;-60
2023/09/07 01:36:46;;;;;;;10.73;8.55;;;23.00;99.90;;;;;;5072656;28;20024;-60
2023/09/07 01:39:12;;;;;;;11.98;8.43;;;23.00;99.90;;;;;;5072968;28;20028;-59
2023/09/07 01:41:38;;;;;;;10.23;8.48;;;23.10;99.90;;;;;;5073248;28;20036;-59
2023/09/07 01:44:04;;;;;;;12.00;8.57;;;23.10;99.90;;;;;;5072829;28;20104;-59
2023/09/07 01:46:29;;;;;;;13.23;9.10;;;23.00;99.90;;;;;;5072900;28;20048;-60
2023/09/07 01:48:55;;;;;;;12.90;9.00;;;22.90;99.90;;;;;;5073133;28;20503;-60
2023/09/07 01:51:21;;;;;;;11.55;8.45;;;22.80;99.90;;;;;;5078048;28;20042;-60
2023/09/07 01:53:48;;;;;;;11.63;8.52;;;22.70;99.90;;;;;;5093147;28;20027;-59
2023/09/07 01:56:16;;;;;;;10.45;8.68;;;22.60;99.90;;;;;;5092831;28;20089;-60
2023/09/07 01:58:41;;;;;;;14.35;9.20;;;22.60;99.90;;;;;;5092830;28;20103;-59
2023/09/07 02:01:19;;;;;;;15.45;9.45;;;22.50;99.90;;;;;;5092910;28;20498;-60
2023/09/07 02:03:44;;;;;;;10.90;9.20;;;22.40;99.90;;;;;;5092442;28;20027;-60
2023/09/07 02:06:10;;;;;;;10.77;8.93;;;22.30;99.90;;;;;;5092708;28;20028;-59
2023/09/07 02:08:36;;;;;;;11.38;9.10;;;22.20;99.90;;;;;;5092965;28;20032;-59
2023/09/07 02:11:02;;;;;;;11.23;9.00;;;22.20;99.90;;;;;;5092635;28;20069;-59
2023/09/07 02:13:28;;;;;;;12.25;8.98;;;22.20;99.90;;;;;;5092524;28;20085;-59
2023/09/07 02:15:54;;;;;;;12.57;9.43;;;22.10;99.90;;;;;;5092724;28;20024;-60
2023/09/07 02:18:19;;;;;;;12.93;9.25;;;22.10;99.90;;;;;;5092144;28;20032;-59
2023/09/07 02:20:45;;;;;;;13.50;9.27;;;22.10;99.90;;;;;;5081102;28;20060;-60
2023/09/07 02:23:11;;;;;;;13.73;9.23;;;22.00;99.90;;;;;;5072109;28;20060;-60
2023/09/07 02:25:36;;;;;;;10.70;9.43;;;22.10;99.90;;;;;;5071915;28;20028;-60
2023/09/07 02:28:02;;;;;;;10.18;9.10;;;22.00;99.90;;;;;;5072130;28;20045;-60
2023/09/07 02:30:28;;;;;;;12.05;8.98;;;21.90;99.90;;;;;;5054055;28;20024;-59
2023/09/07 02:32:54;;;;;;;10.25;8.80;;;21.90;99.90;;;;;;5071580;28;20039;-60
2023/09/07 02:35:19;;;;;;;11.70;9.18;;;22.20;99.90;;;;;;5072048;28;20033;-60
2023/09/07 02:37:45;;;;;;;12.10;8.82;;;22.30;99.90;;;;;;5071949;28;20024;-59
2023/09/07 02:40:11;;;;;;;13.23;9.38;;;22.40;99.90;;;;;;5071524;28;20082;-59
2023/09/07 02:42:37;;;;;;;12.55;9.07;;;22.30;99.90;;;;;;5072195;28;20448;-59
2023/09/07 02:45:03;;;;;;;11.75;8.85;;;22.40;99.90;;;;;;5071622;28;20017;-59
2023/09/07 02:47:28;;;;;;;13.02;9.48;;;22.30;99.90;;;;;;5071222;28;20503;-60
2023/09/07 02:49:54;;;;;;;13.27;9.93;;;22.20;99.90;;;;;;5071524;28;20075;-59
2023/09/07 02:52:20;;;;;;;13.77;9.13;;;22.20;99.90;;;;;;5085308;28;20036;-60
2023/09/07 02:54:46;;;;;;;11.38;8.80;;;22.20;99.90;;;;;;5092158;28;20031;-60
2023/09/07 02:57:12;;;;;;;10.70;9.38;;;22.20;99.90;;;;;;5091599;28;20035;-59
2023/09/07 02:59:38;;;;;;;11.90;9.23;;;22.30;99.90;;;;;;5091685;28;20397;-60
2023/09/07 03:02:03;;;;;;;10.55;9.38;;;22.30;99.90;;;;;;5090916;28;20020;-60
2023/09/07 03:04:29;;;;;;;10.57;9.02;;;22.20;99.90;;;;;;5091884;28;20370;-60
2023/09/07 03:06:55;;;;;;;11.57;9.57;;;22.20;99.90;;;;;;5091546;28;20035;-59
2023/09/07 03:09:20;;;;;;;12.85;9.35;;;22.10;99.90;;;;;;5091552;28;20028;-60
2023/09/07 03:11:46;;;;;;;12.65;9.50;;;22.00;99.90;;;;;;5091451;28;20034;-60
2023/09/07 03:14:11;;;;;;;13.30;9.27;;;21.90;99.90;;;;;;5091423;28;20108;-59
2023/09/07 03:16:38;;;;;;;11.30;9.30;;;21.80;99.90;;;;;;5091190;28;20024;-59
2023/09/07 03:19:04;;;;;;;11.40;9.50;;;21.70;99.90;;;;;;5091388;28;20035;-59
2023/09/07 03:21:30;;;;;;;10.73;8.85;;;21.70;99.90;;;;;;5074197;28;20028;-60
2023/09/07 03:23:57;;;;;;;11.00;8.98;;;21.60;99.90;;;;;;5071199;28;20059;-60
2023/09/07 03:26:23;;;;;;;10.70;8.98;;;21.60;99.90;;;;;;5071191;28;20107;-59
2023/09/07 03:28:49;;;;;;;11.60;8.90;;;21.50;99.90;;;;;;5071168;28;20135;-60
2023/09/07 03:31:15;;;;;;;11.00;8.65;;;21.40;99.90;;;;;;5053152;28;20025;-60
2023/09/07 03:33:40;;;;;;;11.38;8.43;;;21.40;99.90;;;;;;5070956;28;20039;-60
2023/09/07 03:36:06;;;;;;;11.27;8.63;;;21.40;99.90;;;;;;5070924;28;20028;-60
2023/09/07 03:38:31;;;;;;;11.40;8.30;;;21.40;99.90;;;;;;5071092;28;20029;-60
2023/09/07 03:40:57;;;;;;;8.95;8.05;;;21.40;99.90;;;;;;5071048;28;20107;-59
2023/09/07 03:43:23;;;;;;;10.40;8.18;;;21.30;99.90;;;;;;5071410;28;20580;-60
2023/09/07 03:45:49;;;;;;;10.95;8.63;;;21.30;99.90;;;;;;5070679;28;20074;-60
2023/09/07 03:48:14;;;;;;;9.02;8.10;;;21.20;99.90;;;;;;5070816;28;20028;-59
2023/09/07 03:50:40;;;;;;;11.45;7.63;;;21.30;99.90;;;;;;5071063;28;20442;-59
2023/09/07 03:53:06;;;;;;;10.52;7.72;;;21.40;99.90;;;;;;5070960;28;20489;-60
2023/09/07 03:55:41;;;;;;;8.57;7.35;;;21.40;99.90;;;;;;5071130;28;20493;-60
2023/09/07 03:58:09;;;;;;;9.40;7.50;;;21.60;99.90;;;;;;5070751;28;20027;-59
2023/09/07 04:00:37;;;;;;;9.32;7.30;;;21.70;99.90;;;;;;5070512;28;20020;-59
2023/09/07 04:03:03;;;;;;;8.43;7.43;;;21.70;99.90;;;;;;5070907;28;20028;-60
2023/09/07 04:05:29;;;;;;;9.23;6.78;;;21.80;99.90;;;;;;5070824;28;20028;-59
2023/09/07 04:07:54;;;;;;;10.55;7.32;;;21.80;99.90;;;;;;5070778;28;20029;-60
2023/09/07 04:10:20;;;;;;;9.70;7.38;;;21.70;99.90;;;;;;5070734;28;20400;-59
2023/09/07 04:12:46;;;;;;;12.75;7.68;;;21.80;99.90;;;;;;5071105;28;20028;-60
2023/09/07 04:15:11;;;;;;;7.78;6.97;;;21.80;99.90;;;;;;5072218;28;20035;-59
2023/09/07 04:17:40;;;;;;;10.63;7.40;;;21.70;99.90;;;;;;5074573;28;20036;-59
2023/09/07 04:20:07;;;;;;;8.43;7.40;;;21.60;99.90;;;;;;5074726;28;20549;-59
2023/09/07 04:22:33;;;;;;;10.30;7.20;;;21.60;99.90;;;;;;5074484;28;20490;-59
2023/09/07 04:24:59;;;;;;;9.35;7.35;;;21.60;99.90;;;;;;5074374;28;20032;-59
2023/09/07 04:27:25;;;;;;;10.05;7.03;;;21.70;99.90;;;;;;5074087;28;20126;-60
2023/09/07 04:29:51;;;;;;;9.65;7.00;;;21.60;99.90;;;;;;5074152;28;20477;-60
2023/09/07 04:32:17;;;;;;;9.30;7.00;;;21.40;99.90;;;;;;5074182;28;20094;-60
2023/09/07 04:34:42;;;;;;;10.65;7.50;;;21.30;99.90;;;;;;5074238;28;20020;-59
2023/09/07 04:37:08;;;;;;;8.02;7.22;;;21.20;99.90;;;;;;5074527;28;20087;-59
2023/09/07 04:39:33;;;;;;;8.40;7.30;;;21.10;99.90;;;;;;5074133;28;20048;-60
2023/09/07 04:41:59;;;;;;;10.82;7.13;;;20.90;99.90;;;;;;5074171;28;20563;-59
2023/09/07 04:44:28;;;;;;;7.90;6.78;;;20.90;99.90;;;;;;5073695;28;20551;-60
2023/09/07 04:46:55;;;;;;;8.05;7.22;;;20.80;99.90;;;;;;5073881;28;20029;-59
2023/09/07 04:49:21;;;;;;;8.27;7.20;;;20.80;99.90;;;;;;5073908;28;20607;-59
2023/09/07 04:51:46;;;;;;;9.30;7.15;;;20.70;99.90;;;;;;5055775;28;20136;-59
2023/09/07 04:54:13;;;;;;;9.40;7.32;;;20.70;99.90;;;;;;5073747;28;20444;-60
2023/09/07 04:56:38;;;;;;;9.18;6.80;;;20.60;99.90;;;;;;5073924;28;20024;-59
2023/09/07 04:59:04;;;;;;;10.63;7.20;;;20.60;99.90;;;;;;5073659;28;20024;-59
2023/09/07 05:01:31;;;;;;;7.72;6.25;;;20.60;99.90;;;;;;5073709;28;20489;-59
2023/09/07 05:03:57;;;;;;;9.00;6.95;;;20.60;99.90;;;;;;5073624;28;20028;-59
2023/09/07 05:06:23;;;;;;;7.78;6.50;;;20.60;99.90;;;;;;5074064;28;20041;-60
2023/09/07 05:08:48;;;;;;;7.65;6.85;;;20.60;99.90;;;;;;5073356;28;20041;-59
2023/09/07 05:11:14;;;;;;;8.82;7.03;;;20.60;99.90;;;;;;5073558;28;20066;-60
2023/09/07 05:13:40;;;;;;;7.68;6.80;;;20.70;99.90;;;;;;5073073;28;20496;-59
2023/09/07 05:16:05;;;;;;;8.07;6.78;;;20.80;99.90;;;;;;5073394;28;20040;-60
2023/09/07 05:18:31;;;;;;;7.50;6.80;;;20.90;99.90;;;;;;5073507;28;20036;-59
2023/09/07 05:20:57;;;;;;;7.53;6.40;;;20.90;99.90;;;;;;5073317;28;20024;-59
2023/09/07 05:23:24;;;;;;;10.55;6.75;;;20.90;99.90;;;;;;5073305;28;20412;-59
2023/09/07 05:25:54;;;;;;;7.70;6.50;;;20.90;99.90;;;;;;5073049;28;20016;-60
2023/09/07 05:28:21;;;;;;;11.50;7.13;;;21.00;99.90;;;;;;5072575;28;20052;-60
2023/09/07 05:30:47;;;;;;;9.40;6.65;;;21.10;99.90;;;;;;5073302;28;20386;-59
2023/09/07 05:33:16;;;;;;;9.90;6.97;;;21.10;99.90;;;;;;5073060;28;20024;-60
2023/09/07 05:35:45;;;;;;;8.38;6.32;;;21.20;99.90;;;;;;5073372;28;20029;-60
2023/09/07 05:38:11;;;;;;;7.60;6.82;;;21.30;99.90;;;;;;5073100;28;20461;-60
2023/09/07 05:40:38;;;;;;;9.57;6.50;;;21.30;99.90;;;;;;5073107;28;20100;-60
2023/09/07 05:43:04;;;;;;;8.57;6.50;;;21.30;99.90;;;;;;5072547;28;20046;-60
2023/09/07 05:45:31;;;;;;;8.23;6.70;;;21.30;99.90;;;;;;5072911;28;20572;-61
2023/09/07 05:47:57;;;;;;;6.82;6.05;;;21.10;99.90;;;;;;5072733;28;20032;-60
2023/09/07 05:50:23;;;;;;;7.07;6.25;;;20.90;99.90;;;;;;5072796;28;20090;-60
2023/09/07 05:52:49;;;;;;;7.20;6.35;;;20.80;99.90;;;;;;5072818;28;20027;-60
2023/09/07 05:55:14;;;;;;;7.10;5.97;;;20.70;99.90;;;;;;5072840;28;20030;-60
2023/09/07 05:57:40;;;;;;;8.43;6.05;;;20.60;99.90;;;;;;5072308;28;20815;-59
2023/09/07 06:00:06;;;;;;;7.25;6.47;;;20.60;99.90;;;;;;5072613;28;20028;-59
2023/09/07 06:02:32;;;;;;;7.68;6.07;;;20.50;99.90;;;;;;5072559;28;20029;-60
2023/09/07 06:04:58;;;;;;;6.82;5.75;;;20.50;99.90;;;;;;5072895;28;20047;-60
2023/09/07 06:07:23;;;;;;;7.65;6.20;;;20.40;99.90;;;;;;5072260;28;20452;-60
2023/09/07 06:09:49;;;;;;;7.60;6.13;;;20.40;99.90;;;;;;5072479;28;20024;-60
2023/09/07 06:12:15;;;;;;;7.72;6.20;;;20.40;99.90;;;;;;5054032;28;20040;-60
2023/09/07 06:14:40;;;;;;;8.52;6.00;;;20.40;99.90;;;;;;5072003;28;20028;-58
2023/09/07 06:17:06;;;;;;;7.20;6.10;;;20.30;99.90;;;;;;5072554;28;20100;-59
2023/09/07 06:19:32;;;;;;;7.82;5.50;;;20.30;99.90;;;;;;5072001;28;20032;-59
2023/09/07 06:21:58;;;;;;;9.55;5.45;;;20.40;99.90;;;;;;5072071;28;20032;-60
2023/09/07 06:24:24;;;;;;;6.93;5.40;;;20.40;99.90;;;;;;5071854;28;20032;-60
2023/09/07 06:26:49;;;;;;;7.45;5.70;;;20.40;99.90;;;;;;5070926;28;20037;-60
2023/09/07 06:29:15;;;;;;;6.80;5.40;;;20.40;99.90;;;;;;5071635;28;20489;-59
2023/09/07 06:31:41;;;;;;;6.30;4.93;;;20.40;99.90;;;;;;5071395;28;20560;-60
2023/09/07 06:34:06;;;;;;;6.38;5.30;;;20.60;99.90;;;;;;5072132;28;20485;-59
2023/09/07 06:36:32;;;;;;;5.75;5.00;;;20.70;99.90;;;;;;5071702;28;20104;-60
2023/09/07 06:38:58;;;;;;;6.80;5.10;;;20.80;99.90;;;;;;5071428;28;20155;-60
2023/09/07 06:41:24;;;;;;;6.75;5.00;;;20.90;99.90;;;;;;5071313;28;20072;-59
2023/09/07 06:43:50;;;;;;;8.40;5.20;;;21.00;99.90;;;;;;5071815;28;20050;-59
2023/09/07 06:46:16;;;;;;;10.57;4.78;;;21.00;99.90;;;;;;5072051;28;20090;-59
2023/09/07 06:48:41;;;;;;;7.10;4.82;;;21.10;99.90;;;;;;5071606;28;20042;-59
2023/09/07 06:51:09;;;;;;;5.72;4.72;;;21.20;99.90;;;;;;5071439;28;20397;-60
2023/09/07 06:53:35;;;;;;;7.18;4.97;;;21.30;99.90;;;;;;5071553;28;20035;-59
2023/09/07 06:56:02;;;;;;;6.47;4.85;;;21.30;99.90;;;;;;5071134;28;20056;-60
2023/09/07 06:58:28;;;;;;;6.28;4.57;;;21.30;99.90;;;;;;5071941;28;20400;-60
2023/09/07 07:00:58;;;;;;;4.70;4.20;;;21.30;99.90;;;;;;5071523;28;20017;-59
2023/09/07 07:03:26;;;;;;;6.32;4.43;;;21.40;99.90;;;;;;5071386;28;20024;-59
2023/09/07 07:05:52;;;;;;;6.28;4.10;;;21.30;99.90;;;;;;5071453;28;20015;-59
2023/09/07 07:08:18;;;;;;;5.65;4.10;;;21.20;99.90;;;;;;5071413;28;20037;-60
2023/09/07 07:10:43;;;;;;;7.53;4.90;;;21.10;99.90;;;;;;5071187;28;20579;-58
2023/09/07 07:13:09;;;;;;;6.32;4.32;;;21.10;99.90;;;;;;5071258;28;20473;-59
2023/09/07 07:15:35;;;;;;;8.02;4.75;;;21.10;99.90;;;;;;5071173;28;20023;-59
2023/09/07 07:18:05;;;;;;;6.43;4.30;;;21.10;99.90;;;;;;5071200;28;20043;-59
2023/09/07 07:20:31;;;;;;;5.53;4.22;;;21.00;99.90;;;;;;5071475;28;20023;-60
2023/09/07 07:22:57;;;;;;;7.15;4.40;;;21.00;99.90;;;;;;5070524;28;20028;-58
2023/09/07 07:25:22;;;;;;;5.07;4.00;;;21.00;99.90;;;;;;5068066;28;20037;-58
2023/09/07 07:27:48;;;;;;;6.07;4.03;;;21.20;99.90;;;;;;5065494;28;20060;-59
2023/09/07 07:30:14;;;;;;;6.53;4.32;;;21.30;99.90;;;;;;5071177;28;20036;-58
2023/09/07 07:32:39;;;;;;;6.78;4.50;;;21.30;99.90;;;;;;5071209;28;20028;-59
2023/09/07 07:35:06;;;;;;;6.53;4.25;;;21.30;99.90;;;;;;5071149;28;20564;-59
2023/09/07 07:37:32;;;;;;;7.55;4.30;;;21.40;99.90;;;;;;5071012;28;20093;-59
2023/09/07 07:39:57;;;;;;;5.53;4.00;;;21.40;99.90;;;;;;5053150;28;20021;-58
2023/09/07 07:42:23;;;;;;;5.85;4.47;;;21.50;99.90;;;;;;5071034;28;20080;-58
2023/09/07 07:44:49;;;;;;;7.78;4.00;;;21.60;99.90;;;;;;5071422;28;20020;-58
2023/09/07 07:47:14;;;;;;;5.70;4.25;;;21.60;99.90;;;;;;5070934;28;20035;-57
2023/09/07 07:49:40;;;;;;;5.45;4.10;;;21.60;99.90;;;;;;5073837;28;20036;-58
2023/09/07 07:52:06;;;;;;;6.88;4.30;;;21.80;99.90;;;;;;5074615;28;20146;-58
2023/09/07 07:54:33;;;;;;;6.55;4.25;;;22.00;99.90;;;;;;5074901;28;20095;-58
2023/09/07 07:56:59;;;;;;;8.07;4.30;;;22.20;99.90;;;;;;5075180;28;20029;-58
2023/09/07 07:59:25;;;;;;;5.22;4.13;;;22.30;99.90;;;;;;5075230;28;20021;-58
2023/09/07 08:01:50;;;;;;;6.18;4.05;;;22.50;99.90;;;;;;5074792;28;20059;-58
2023/09/07 08:04:16;;;;;;;5.32;4.00;;;22.60;99.90;;;;;;5074821;28;20075;-58
2023/09/07 08:06:42;;;;;;;4.32;3.70;;;22.60;99.90;;;;;;5074411;28;20016;-58
2023/09/07 08:09:08;;;;;;;4.78;4.20;;;22.70;99.90;;;;;;5074553;28;20063;-58
2023/09/07 08:11:34;;;;;;;6.28;4.30;;;22.70;99.90;;;;;;5074706;28;20021;-58
2023/09/07 08:13:59;;;;;;;5.60;4.38;;;22.80;99.90;;;;;;5074451;28;20038;-58
2023/09/07 08:16:25;;;;;;;5.35;3.75;;;22.90;99.90;;;;;;5074612;28;20021;-58
2023/09/07 08:18:51;;;;;;;6.43;4.20;;;22.90;99.90;;;;;;5075089;28;20037;-58
2023/09/07 08:21:17;;;;;;;7.30;4.28;;;23.10;99.90;;;;;;5074394;28;20021;-57
2023/09/07 08:23:43;;;;;;;4.63;4.07;;;23.20;99.90;;;;;;5074299;28;20115;-58
2023/09/07 08:26:14;;;;;;;4.57;4.10;;;23.20;99.90;;;;;;5074268;28;20099;-58
2023/09/07 08:28:39;;;;;;;4.93;3.60;;;23.00;99.90;;;;;;5074010;28;20214;-58
2023/09/07 08:31:05;;;;;;;5.35;4.30;;;23.00;99.90;;;;;;5074269;28;20028;-58
2023/09/07 08:33:39;;;;;;;6.30;4.10;;;23.00;99.90;;;;;;5074164;28;20374;-58
2023/09/07 08:36:05;;;;;;;5.80;4.10;;;23.00;99.90;;;;;;5074086;28;20389;-58
2023/09/07 08:38:31;;;;;;;5.88;3.95;;;23.00;99.90;;;;;;5074245;28;20039;-58
2023/09/07 08:41:03;;;;;;;5.78;3.92;;;23.00;99.90;;;;;;5056155;28;20090;-58
2023/09/07 08:43:29;;;;;;;7.30;4.15;;;23.10;99.90;;;;;;5073792;28;20074;-59
2023/09/07 08:46:14;;;;;;;6.18;4.05;;;23.10;99.90;;;;;;5056020;28;20393;-59
2023/09/07 08:48:41;;;;;;;4.80;4.25;;;23.20;99.90;;;;;;5074069;28;20041;-58
2023/09/07 08:51:09;;;;;;;5.20;3.70;;;23.20;99.90;;;;;;5073496;28;20036;-59
2023/09/07 08:53:36;;;;;;;6.53;4.00;;;23.30;99.90;;;;;;5073951;28;20446;-58
2023/09/07 08:56:03;;;;;;;6.55;3.85;;;23.40;99.90;;;;;;5073864;28;20489;-58
2023/09/07 08:58:29;;;;;;;4.45;4.03;;;23.40;99.90;;;;;;5073918;28;20021;-58
2023/09/07 09:00:57;;;;;;;6.95;3.90;;;23.50;99.90;;;;;;5072884;28;20401;-58
2023/09/07 09:03:23;;;;;;;5.03;3.78;;;23.50;99.90;;;;;;5073610;28;20036;-58
2023/09/07 09:05:51;;;;;;;5.65;4.15;;;23.50;99.90;;;;;;5073281;28;20027;-58
2023/09/07 09:08:24;;;;;;;6.60;4.00;;;23.60;99.90;;;;;;5073951;28;20093;-58
2023/09/07 09:11:03;;;;;;;6.25;4.32;;;23.70;99.90;;;;;;5073491;28;20559;-59
2023/09/07 09:13:31;;;;;;;4.80;3.85;;;23.90;99.90;;;;;;5073297;28;20508;-58
2023/09/07 09:15:59;;;;;;;7.63;3.85;;;24.20;99.90;;;;;;5073529;28;20044;-59
2023/09/07 09:18:26;;;;;;;4.85;3.75;;;24.30;99.90;;;;;;5073241;28;20102;-58
2023/09/07 09:20:52;;;;;;;5.90;4.07;;;24.60;99.90;;;;;;5072892;28;20032;-58
2023/09/07 09:23:18;;;;;;;5.70;4.28;;;24.70;99.90;;;;;;5073370;28;20021;-58
2023/09/07 09:25:44;;;;;;;6.55;4.40;;;24.80;99.90;;;;;;5073131;28;20032;-58
2023/09/07 09:28:13;;;;;;;5.32;3.80;;;24.90;99.90;;;;;;5072934;28;20059;-59
2023/09/07 09:30:38;;;;;;;8.18;4.10;;;25.00;99.90;;;;;;5073511;28;20035;-59
2023/09/07 09:33:06;;;;;;;6.13;3.97;;;25.10;99.90;;;;;;5073063;28;20389;-58
2023/09/07 09:35:34;;;;;;;13.07;4.30;;;25.30;99.90;;;;;;5072604;28;20024;-59
2023/09/07 09:38:04;;;;;;;10.60;4.13;;;25.40;99.90;;;;;;5073028;28;20043;-59
2023/09/07 09:40:37;;;;;;;8.15;4.40;;;25.40;99.90;;;;;;5072686;28;20508;-59
2023/09/07 09:43:04;;;;;;;5.22;3.80;;;25.40;99.90;;;;;;5072879;28;20285;-59
2023/09/07 09:45:30;;;;;;;7.75;4.00;;;25.50;99.90;;;;;;5073191;28;20035;-59
2023/09/07 09:47:57;;;;;;;6.93;4.05;;;25.60;99.90;;;;;;5072523;28;20032;-60
2023/09/07 09:50:23;;;;;;;6.53;4.32;;;25.50;99.90;;;;;;5072654;28;20035;-59
2023/09/07 09:52:50;;;;;;;7.43;3.83;;;25.50;99.90;;;;;;5072910;28;20119;-60
2023/09/07 09:55:16;;;;;;;8.57;4.20;;;25.40;99.90;;;;;;5072726;28;20029;-59
2023/09/07 09:57:41;;;;;;;6.80;4.28;;;25.40;99.90;;;;;;5072470;28;20392;-59
2023/09/07 10:02:55;;;;;;;8.20;4.53;;;25.40;99.90;;;;;;5072088;28;20029;-59
2023/09/07 10:05:23;;;;;;;5.50;4.30;;;25.50;99.90;;;;;;5072395;28;20401;-59
2023/09/07 10:07:50;;;;;;;5.85;4.38;;;25.60;99.90;;;;;;5072363;28;20429;-58
2023/09/07 10:10:18;;;;;;;5.38;4.68;;;25.70;99.90;;;;;;5072204;28;20430;-60
2023/09/07 10:12:45;;;;;;;4.80;4.00;;;25.80;99.90;;;;;;5072557;28;20120;-59
2023/09/07 10:15:27;;;;;;;7.28;5.20;;;25.90;99.90;;;;;;5072120;28;20032;-60
2023/09/07 10:18:13;;;;;;;5.93;5.10;;;25.90;99.90;;;;;;5071610;28;20492;-59
2023/09/07 10:20:58;;;;;;;8.75;5.50;;;26.10;99.90;;;;;;5071924;28;20458;-58
2023/09/07 10:23:36;;;;;;;6.50;4.53;;;26.10;99.90;;;;;;5071813;28;20028;-59
2023/09/07 10:26:06;;;;;;;5.10;4.30;;;26.20;99.90;;;;;;5072204;28;20098;-60
2023/09/07 10:28:32;;;;;;;7.55;4.20;;;26.20;99.90;;;;;;5071850;28;20153;-60
2023/09/07 10:31:04;;;;;;;7.07;4.53;;;26.20;99.90;;;;;;5071843;28;20048;-59
2023/09/07 10:33:31;;;;;;;8.60;4.28;;;26.50;99.90;;;;;;5071304;28;20032;-59
2023/09/07 10:35:57;;;;;;;9.23;5.63;;;26.60;99.90;;;;;;5071914;28;20020;-58
2023/09/07 10:38:24;;;;;;;14.43;8.65;;;26.90;99.90;;;;;;5071981;28;20028;-59
2023/09/07 10:40:58;;;;;;;21.02;16.55;;;27.10;99.90;;;;;;5070954;28;20036;-59
2023/09/07 10:43:33;;;;;;;27.75;21.52;;;27.10;99.90;;;;;;5071716;28;20047;-59
2023/09/07 10:46:00;;;;;;;30.83;23.40;;;27.30;99.90;;;;;;5071251;28;20020;-59
2023/09/07 10:48:30;;;;;;;21.90;14.88;;;27.30;99.90;;;;;;5071533;28;20032;-60
2023/09/07 10:50:56;;;;;;;20.33;15.57;;;27.50;99.90;;;;;;5071383;28;20038;-59
2023/09/07 10:53:30;;;;;;;18.60;13.52;;;27.50;99.90;;;;;;5071525;28;20024;-60
2023/09/07 10:56:03;;;;;;;12.38;10.50;;;27.60;99.90;;;;;;5071590;28;20140;-60
2023/09/07 10:58:34;;;;;;;16.17;11.60;;;27.70;99.90;;;;;;5071566;28;20024;-59
2023/09/07 11:01:01;;;;;;;15.88;10.18;;;27.90;99.90;;;;;;5071349;28;20036;-59
2023/09/07 11:03:27;;;;;;;9.75;7.03;;;28.00;99.90;;;;;;5071448;28;20027;-60
2023/09/07 11:06:06;;;;;;;10.27;5.90;;;28.10;99.90;;;;;;5071242;28;20040;-60
2023/09/07 11:08:33;;;;;;;13.73;6.57;;;28.20;99.90;;;;;;5071038;28;20397;-59
2023/09/07 11:11:00;;;;;;;11.30;6.43;;;28.30;99.90;;;;;;5071227;28;20085;-59
2023/09/07 11:13:26;;;;;;;11.20;6.32;;;28.40;99.90;;;;;;5071423;28;20090;-60
2023/09/07 11:15:59;;;;;;;7.72;5.07;;;28.40;99.90;;;;;;5070823;28;20019;-60
2023/09/07 11:18:26;;;;;;;9.90;5.13;;;28.40;99.90;;;;;;5071165;28;20099;-60
2023/09/07 11:20:53;;;;;;;8.38;5.00;;;28.40;99.90;;;;;;5071095;28;20055;-60
2023/09/07 11:23:20;;;;;;;8.40;5.47;;;28.40;99.90;;;;;;5070676;28;20089;-60
2023/09/07 11:25:48;;;;;;;8.50;5.03;;;28.40;99.90;;;;;;5071565;28;20167;-60
2023/09/07 11:28:17;;;;;;;9.10;4.55;;;28.50;99.90;;;;;;5070682;28;20044;-60
2023/09/07 11:30:53;;;;;;;7.80;4.30;;;28.60;99.90;;;;;;5070555;28;20056;-60
2023/09/07 11:33:23;;;;;;;9.30;4.60;;;28.80;99.90;;;;;;5070988;28;20504;-61
2023/09/07 11:35:49;;;;;;;6.90;4.57;;;28.80;99.90;;;;;;5070998;28;20029;-59
2023/09/07 11:38:16;;;;;;;9.40;4.00;;;29.00;99.90;;;;;;5052611;28;20435;-59
2023/09/07 11:40:45;;;;;;;7.63;4.53;;;29.10;99.90;;;;;;5071175;28;20185;-60
2023/09/07 11:43:12;;;;;;;7.70;4.50;;;29.20;99.90;;;;;;5070752;28;20028;-59
2023/09/07 11:45:43;;;;;;;8.77;4.50;;;29.30;99.90;;;;;;5070591;28;20036;-59
2023/09/07 11:48:09;;;;;;;9.40;4.57;;;29.30;99.90;;;;;;5070810;28;20036;-59
2023/09/07 11:50:35;;;;;;;5.55;3.72;;;29.40;99.90;;;;;;5070958;28;20108;-59
2023/09/07 11:53:01;;;;;;;5.50;3.95;;;29.50;99.90;;;;;;5070798;28;20028;-59
2023/09/07 11:55:27;;;;;;;5.75;3.70;;;29.70;99.90;;;;;;5070731;28;20024;-59
2023/09/07 11:57:53;;;;;;;4.28;3.35;;;29.80;99.90;;;;;;5053041;28;20559;-59
2023/09/07 12:00:19;;;;;;;7.85;3.95;;;29.80;99.90;;;;;;5070383;28;20046;-59
2023/09/07 12:02:44;;;;;;;8.55;3.97;;;30.00;99.90;;;;;;5071148;28;20401;-59
2023/09/07 12:05:14;;;;;;;8.55;3.97;;;30.20;99.90;;;;;;5070843;28;20021;-59
2023/09/07 12:07:40;;;;;;;6.82;3.75;;;30.30;99.90;;;;;;5070666;28;20033;-59
2023/09/07 12:10:10;;;;;;;7.80;4.03;;;30.40;99.90;;;;;;5070645;28;20135;-59
2023/09/07 12:12:37;;;;;;;6.43;3.65;;;30.50;99.90;;;;;;5071081;28;20104;-59
2023/09/07 12:15:03;;;;;;;7.32;4.00;;;30.80;99.90;;;;;;5051758;28;20025;-58
2023/09/07 12:17:30;;;;;;;6.57;3.80;;;30.80;99.90;;;;;;5071061;28;20432;-59
2023/09/07 12:19:55;;;;;;;5.53;3.53;;;30.80;99.90;;;;;;5070602;28;20102;-59
2023/09/07 12:22:22;;;;;;;7.80;4.18;;;30.90;99.90;;;;;;5036124;28;20021;-59
2023/09/07 12:24:47;;;;;;;6.90;4.18;;;30.80;99.90;;;;;;5070932;28;20036;-59
2023/09/07 12:27:13;;;;;;;7.38;4.30;;;30.80;99.90;;;;;;5070237;28;20497;-59
2023/09/07 12:29:39;;;;;;;8.35;4.40;;;30.80;99.90;;;;;;5070415;28;20067;-59
2023/09/07 12:32:05;;;;;;;11.15;4.45;;;30.70;99.90;;;;;;5070576;28;20020;-58
2023/09/07 12:34:30;;;;;;;9.63;3.88;;;30.60;99.90;;;;;;5070554;28;20031;-59
2023/09/07 12:36:56;;;;;;;7.63;4.40;;;30.80;99.90;;;;;;5073425;28;20025;-59
2023/09/07 12:39:22;;;;;;;5.68;4.07;;;30.90;99.90;;;;;;5074079;28;20131;-59
2023/09/07 12:41:47;;;;;;;7.05;4.03;;;30.90;99.90;;;;;;5073764;28;20029;-59
2023/09/07 12:44:13;;;;;;;6.18;3.70;;;30.90;99.90;;;;;;5073850;28;20036;-59